Weather at Indira Gandhi International Airport

Public forecast

Using degrees Celsius for public forecast. Weather courtesy of forecast.io.

Current aviation weather report (METAR) for Indira Gandhi International Airport

Retrieved 2020/09/24 04:30 UTC (21 minutes ago):

VIDP 240430Z 12005KT 3000 HZ SCT030 BKN100 30/24 Q1005 NOSIG

Aviation forecast (TAF) for Indira Gandhi International Airport

Retrieved 2020-09-24 00:00 UTC (5 hours ago):

TAF VIDP 232300Z 2400/2506 11005KT 2000 BR SCT035 BKN100 TEMPO 2401/2405 29008G18KT 1500 BR -TSRA FEW035CB BECMG 2406/2408 29010KT 3500 HZ BECMG 2415/2417 VRB02KT 3000 BR SCT100 BECMG 2423/2501 1500 BR BECMG 2503/2505 29008G18KT 2500 HZ FEW100